Time;durP1;ratioP1;P1;durP2;ratioP2;P2;SDS_P1;SDS_P2;PMS_P1;PMS_P2;Temp;Humidity;BMP_temperature;BMP_pressure;BME280_temperature;BME280_humidity;BME280_pressure;Samples;Min_cycle;Max_cycle;Signal;HPM_P1;HPM_P2
2023/03/09 00:04:38;;;;;;;17.90;9.60;;;;;;;7.07;91.65;96857.11;273494;1269;22379;-82
2023/03/09 00:10:40;;;;;;;17.10;9.80;;;;;;;7.01;92.23;96852.19;272932;1269;25584;-82
2023/03/09 00:16:42;;;;;;;17.00;10.30;;;;;;;6.93;92.93;96847.04;271493;1269;22569;-82
2023/03/09 00:22:52;;;;;;;16.20;10.10;;;;;;;6.88;93.49;96846.08;269942;1269;23527;-82
2023/03/09 00:28:54;;;;;;;18.20;11.20;;;;;;;6.85;94.78;96845.02;269594;1256;25175;-82
2023/03/09 00:34:56;;;;;;;16.20;10.30;;;;;;;6.80;95.11;96833.88;270285;1269;22393;-83
2023/03/09 00:40:58;;;;;;;16.50;11.30;;;;;;;6.76;95.52;96831.42;273075;1269;22486;-82
2023/03/09 00:47:00;;;;;;;17.10;9.90;;;;;;;6.73;96.41;96826.78;273288;1257;22220;-83
2023/03/09 00:53:03;;;;;;;15.30;9.10;;;;;;;6.71;96.93;96825.02;270640;1269;24263;-82
2023/03/09 00:59:05;;;;;;;15.20;9.20;;;;;;;6.70;97.26;96823.17;269481;1269;25405;-83
2023/03/09 01:05:08;;;;;;;17.40;10.50;;;;;;;6.67;97.84;96820.69;269865;1269;22701;-82
2023/03/09 01:11:14;;;;;;;17.90;11.30;;;;;;;6.63;98.19;96811.55;269136;1269;22538;-83
2023/03/09 01:17:15;;;;;;;16.80;10.20;;;;;;;6.60;98.41;96802.04;270316;1269;23137;-82
2023/03/09 01:23:18;;;;;;;14.80;9.60;;;;;;;6.57;98.64;96791.05;269935;1269;22534;-82
2023/03/09 01:29:20;;;;;;;16.40;9.60;;;;;;;6.56;99.33;96785.92;270823;1269;22383;-83
2023/03/09 01:35:22;;;;;;;14.40;9.40;;;;;;;6.55;99.69;96781.12;273159;1269;23391;-83
2023/03/09 01:41:24;;;;;;;16.00;9.70;;;;;;;6.55;99.88;96776.45;273336;1260;23156;-83
2023/03/09 01:47:25;;;;;;;13.30;8.30;;;;;;;6.55;99.99;96778.08;273373;1269;22291;-84
2023/03/09 01:53:27;;;;;;;16.70;10.00;;;;;;;6.55;100.00;96771.71;273118;1269;22520;-82
2023/03/09 01:59:30;;;;;;;18.00;10.50;;;;;;;6.56;100.00;96762.30;273368;1269;22450;-83
2023/03/09 02:05:40;;;;;;;15.00;10.00;;;;;;;6.60;100.00;96756.20;270979;1269;26162;-82
2023/03/09 02:11:44;;;;;;;13.30;9.20;;;;;;;6.64;100.00;96753.45;270533;1269;22632;-82
2023/03/09 02:17:46;;;;;;;14.00;9.30;;;;;;;6.66;100.00;96751.27;269888;1259;25412;-82
2023/03/09 02:24:08;;;;;;;14.40;8.80;;;;;;;6.67;100.00;96748.70;272522;1256;23786;-82
2023/03/09 02:30:10;;;;;;;14.90;9.30;;;;;;;6.67;100.00;96748.38;269744;1269;22526;-82
2023/03/09 02:36:12;;;;;;;9.40;6.90;;;;;;;6.66;100.00;96738.66;270581;1269;22673;-82
2023/03/09 02:42:16;;;;;;;9.70;6.80;;;;;;;6.65;100.00;96731.70;269898;1269;22551;-82
2023/03/09 02:48:19;;;;;;;10.10;5.80;;;;;;;6.65;100.00;96734.73;269860;1269;22564;-82
2023/03/09 02:54:21;;;;;;;10.50;4.80;;;;;;;6.63;100.00;96739.09;269350;1266;22645;-82
2023/03/09 03:00:24;;;;;;;5.80;4.50;;;;;;;6.66;100.00;96739.84;269851;1269;23584;-83
2023/03/09 03:06:26;;;;;;;6.60;4.30;;;;;;;6.71;100.00;96748.42;269511;1269;24027;-83
2023/03/09 03:12:29;;;;;;;6.00;4.10;;;;;;;6.75;100.00;96747.91;269345;1269;22419;-82
2023/03/09 03:18:34;;;;;;;5.40;4.00;;;;;;;6.78;100.00;96746.88;269516;1266;22526;-83
2023/03/09 03:24:37;;;;;;;5.50;4.10;;;;;;;6.77;100.00;96745.55;270022;1269;22595;-82
2023/03/09 03:30:39;;;;;;;5.70;3.90;;;;;;;6.76;100.00;96743.02;270720;1269;22590;-82
2023/03/09 03:36:41;;;;;;;5.90;3.70;;;;;;;6.75;100.00;96739.52;271523;1269;22484;-82
2023/03/09 03:42:43;;;;;;;5.30;4.00;;;;;;;6.75;100.00;96745.52;272756;1269;22474;-82
2023/03/09 03:48:45;;;;;;;3.70;3.10;;;;;;;6.74;100.00;96743.04;272377;1269;22763;-81
2023/03/09 03:54:48;;;;;;;4.50;3.80;;;;;;;6.74;100.00;96740.70;269367;1269;22514;-81
2023/03/09 04:00:50;;;;;;;6.60;4.00;;;;;;;6.72;100.00;96730.48;270346;1269;23821;-81
2023/03/09 04:06:53;;;;;;;5.40;3.50;;;;;;;6.70;100.00;96723.97;269703;1259;22773;-82
2023/03/09 04:12:57;;;;;;;4.50;3.20;;;;;;;6.69;100.00;96717.07;273474;1269;22417;-82
2023/03/09 04:18:59;;;;;;;5.10;3.00;;;;;;;6.67;100.00;96712.41;270808;1269;22693;-83
2023/03/09 04:25:01;;;;;;;6.50;3.20;;;;;;;6.67;100.00;96703.56;271631;1269;23535;-82
2023/03/09 04:31:03;;;;;;;4.40;3.10;;;;;;;6.69;100.00;96700.91;272182;1269;22388;-82
2023/03/09 04:37:06;;;;;;;3.80;2.90;;;;;;;6.70;100.00;96694.14;273011;1269;22723;-82
2023/03/09 04:43:08;;;;;;;6.50;4.00;;;;;;;6.73;100.00;96688.76;271339;1268;22372;-82
2023/03/09 04:49:10;;;;;;;4.70;3.70;;;;;;;6.74;100.00;96677.09;271305;1259;23742;-82
2023/03/09 04:55:14;;;;;;;6.30;4.50;;;;;;;6.76;100.00;96679.40;269684;1269;22272;-82
2023/03/09 05:01:16;;;;;;;6.10;4.00;;;;;;;6.74;100.00;96672.18;269629;1268;22175;-83
2023/03/09 05:07:18;;;;;;;7.10;4.70;;;;;;;6.72;100.00;96669.64;270111;1269;25475;-82
2023/03/09 05:13:20;;;;;;;7.70;4.90;;;;;;;6.71;100.00;96659.57;271949;1269;23487;-81
2023/03/09 05:19:23;;;;;;;8.20;5.70;;;;;;;6.70;100.00;96656.93;273278;1269;23141;-82
2023/03/09 05:25:27;;;;;;;7.40;5.10;;;;;;;6.73;100.00;96654.11;273203;1269;23523;-82
2023/03/09 05:31:30;;;;;;;8.30;4.70;;;;;;;6.78;100.00;96653.17;273234;1269;22215;-83
2023/03/09 05:37:33;;;;;;;6.70;4.50;;;;;;;6.84;100.00;96652.80;272797;1269;22384;-82
2023/03/09 05:43:36;;;;;;;5.90;3.30;;;;;;;6.88;100.00;96654.54;273114;1265;23061;-82
2023/03/09 05:49:38;;;;;;;5.90;2.80;;;;;;;6.98;100.00;96654.58;273645;1269;22516;-82
2023/03/09 05:55:40;;;;;;;5.20;2.90;;;;;;;7.07;100.00;96655.09;271956;1269;22382;-82
2023/03/09 06:01:42;;;;;;;6.30;3.00;;;;;;;7.10;100.00;96648.75;273197;1269;23473;-83
2023/03/09 06:07:56;;;;;;;4.30;2.90;;;;;;;7.19;100.00;96646.47;273221;1269;22284;-82
2023/03/09 06:13:59;;;;;;;5.50;3.40;;;;;;;7.23;100.00;96650.06;273118;1269;22199;-81
2023/03/09 06:20:07;;;;;;;4.10;2.90;;;;;;;7.26;100.00;96654.23;272932;1269;22387;-83
2023/03/09 06:26:13;;;;;;;4.80;2.70;;;;;;;7.32;100.00;96647.52;273166;1269;23056;-81
2023/03/09 06:32:18;;;;;;;3.80;2.70;;;;;;;7.44;100.00;96649.08;273435;1266;22374;-83
2023/03/09 06:38:23;;;;;;;5.20;3.30;;;;;;;7.58;100.00;96651.36;273314;1259;23158;-82
2023/03/09 06:44:25;;;;;;;4.60;3.30;;;;;;;7.72;100.00;96652.95;269746;1269;22596;-81
2023/03/09 06:50:28;;;;;;;6.50;3.20;;;;;;;7.80;100.00;96657.27;269716;1270;26623;-82
2023/03/09 06:56:31;;;;;;;5.60;3.50;;;;;;;7.93;100.00;96654.64;270770;1269;23149;-82
2023/03/09 07:02:32;;;;;;;7.40;3.80;;;;;;;8.14;100.00;96645.42;272056;1266;23114;-82
2023/03/09 07:08:35;;;;;;;4.00;2.90;;;;;;;8.41;100.00;96643.83;269313;1269;22196;-83
2023/03/09 07:14:37;;;;;;;8.30;3.90;;;;;;;8.65;100.00;96648.76;273392;1260;22191;-82
2023/03/09 07:20:40;;;;;;;4.90;3.10;;;;;;;8.78;100.00;96647.48;273409;1269;22192;-84
2023/03/09 07:26:42;;;;;;;5.30;3.20;;;;;;;8.84;100.00;96645.10;273430;1269;23014;-82
2023/03/09 07:32:44;;;;;;;6.50;3.40;;;;;;;8.89;100.00;96636.91;271138;1269;22361;-82
2023/03/09 07:38:47;;;;;;;4.10;3.10;;;;;;;8.93;100.00;96631.60;270262;1269;23001;-81
2023/03/09 07:44:49;;;;;;;7.20;3.70;;;;;;;8.97;100.00;96631.30;268734;1269;22661;-82
2023/03/09 07:50:58;;;;;;;6.50;3.50;;;;;;;9.04;100.00;96614.61;270042;1263;22402;-81
2023/03/09 07:57:00;;;;;;;4.00;3.00;;;;;;;9.19;100.00;96602.52;273640;1269;22180;-82
2023/03/09 08:03:03;;;;;;;6.50;3.60;;;;;;;9.27;100.00;96606.48;273637;1259;22534;-83
2023/03/09 08:09:06;;;;;;;6.40;3.10;;;;;;;9.21;100.00;96614.95;273286;1266;24228;-84
2023/03/09 08:15:09;;;;;;;5.50;3.40;;;;;;;9.09;100.00;96621.76;273646;1269;22369;-82
2023/03/09 08:21:13;;;;;;;7.50;4.00;;;;;;;9.03;100.00;96631.10;271212;1269;22212;-83
2023/03/09 08:27:14;;;;;;;7.50;4.80;;;;;;;8.91;100.00;96642.09;273388;1270;22444;-83
2023/03/09 08:33:16;;;;;;;10.40;7.10;;;;;;;8.84;100.00;96649.73;269504;1269;23685;-82
2023/03/09 08:39:18;;;;;;;10.90;5.10;;;;;;;8.83;100.00;96646.23;272039;1260;22558;-83
2023/03/09 08:45:19;;;;;;;8.30;4.80;;;;;;;8.83;100.00;96645.59;271904;1269;22303;-82
2023/03/09 08:51:21;;;;;;;4.50;3.50;;;;;;;8.83;100.00;96643.89;273499;1269;22379;-82
2023/03/09 08:57:23;;;;;;;8.30;4.00;;;;;;;8.86;100.00;96645.56;273471;1269;22266;-83
2023/03/09 09:03:24;;;;;;;6.50;3.80;;;;;;;8.91;100.00;96645.52;270958;1269;22594;-82
2023/03/09 09:09:26;;;;;;;4.60;3.30;;;;;;;8.99;100.00;96644.98;270247;1269;22598;-82
2023/03/09 09:15:28;;;;;;;6.40;4.40;;;;;;;9.07;100.00;96646.21;269657;1269;25278;-82
2023/03/09 09:21:30;;;;;;;4.60;3.10;;;;;;;9.14;100.00;96649.11;269204;1254;23560;-83
2023/03/09 09:27:32;;;;;;;6.90;3.70;;;;;;;9.16;100.00;96650.16;269565;1264;25675;-83
2023/03/09 09:33:34;;;;;;;6.10;3.90;;;;;;;9.22;100.00;96650.34;269365;1260;23289;-84
2023/03/09 09:39:37;;;;;;;7.40;4.60;;;;;;;9.29;100.00;96648.88;269782;1269;22520;-83
2023/03/09 09:45:43;;;;;;;9.30;4.90;;;;;;;9.30;100.00;96651.73;268958;1269;22564;-82
2023/03/09 09:52:24;;;;;;;6.10;3.90;;;;;;;9.31;100.00;96654.90;269570;1269;22538;-83
2023/03/09 09:58:41;;;;;;;10.40;5.30;;;;;;;9.38;100.00;96664.52;269735;1269;23381;-83
2023/03/09 10:04:49;;;;;;;13.10;6.50;;;;;;;9.39;100.00;96667.14;270493;1269;24202;-85
2023/03/09 10:10:51;;;;;;;6.60;4.00;;;;;;;9.39;100.00;96680.65;269334;1269;123872;-83
2023/03/09 10:16:59;;;;;;;10.20;5.80;;;;;;;9.30;100.00;96690.96;271124;1269;22395;-82
2023/03/09 10:23:11;;;;;;;16.00;8.10;;;;;;;9.20;100.00;96689.86;272105;1269;23041;-84
2023/03/09 10:29:19;;;;;;;14.10;9.40;;;;;;;9.16;100.00;96694.52;273232;1267;22741;-83
2023/03/09 10:35:27;;;;;;;11.10;6.20;;;;;;;9.16;100.00;96701.16;273179;1269;23493;-83
2023/03/09 10:41:29;;;;;;;8.10;4.50;;;;;;;9.09;100.00;96720.87;272497;1269;22526;-83
2023/03/09 10:47:53;;;;;;;10.00;3.70;;;;;;;8.97;100.00;96740.20;271772;1269;22634;-84
2023/03/09 10:53:56;;;;;;;6.90;3.60;;;;;;;8.86;100.00;96751.39;272706;1269;22294;-84
2023/03/09 11:00:06;;;;;;;12.60;5.20;;;;;;;8.79;100.00;96758.77;272155;1269;25325;-84
2023/03/09 11:06:09;;;;;;;6.50;4.90;;;;;;;8.76;100.00;96770.42;270304;1269;22556;-84
2023/03/09 11:12:25;;;;;;;11.90;5.90;;;;;;;8.75;100.00;96777.69;271513;1259;23704;-83
2023/03/09 11:18:29;;;;;;;11.90;7.90;;;;;;;8.76;100.00;96782.67;272465;1269;24208;-83
2023/03/09 11:24:36;;;;;;;22.60;12.20;;;;;;;8.81;100.00;96798.17;273320;1270;23618;-83
2023/03/09 11:31:06;;;;;;;23.80;12.30;;;;;;;8.86;100.00;96810.72;273224;1258;22361;-83
2023/03/09 11:37:55;;;;;;;19.40;11.70;;;;;;;8.86;100.00;96817.81;273455;1263;22392;-83
2023/03/09 11:44:02;;;;;;;15.40;9.30;;;;;;;8.81;100.00;96833.33;272780;1269;23312;-83
2023/03/09 11:50:25;;;;;;;17.10;10.60;;;;;;;8.73;100.00;96850.67;273132;1269;22445;-83
2023/03/09 11:56:30;;;;;;;11.20;6.30;;;;;;;8.70;100.00;96857.52;273112;1269;22246;-83
2023/03/09 12:02:58;;;;;;;6.40;4.30;;;;;;;8.70;100.00;96872.86;273148;1266;24464;-83
2023/03/09 12:09:44;;;;;;;5.80;3.30;;;;;;;8.68;100.00;96890.42;272998;1269;22298;-83
2023/03/09 12:16:15;;;;;;;7.50;4.10;;;;;;;8.67;100.00;96914.06;273590;1269;22199;-83
2023/03/09 12:22:22;;;;;;;8.10;3.80;;;;;;;8.68;100.00;96928.23;272939;1259;22582;-83
2023/03/09 12:29:04;;;;;;;7.20;2.50;;;;;;;8.71;100.00;96931.30;271856;1269;22406;-83
2023/03/09 12:35:39;;;;;;;11.20;3.60;;;;;;;8.84;100.00;96945.38;270841;1267;22609;-85
2023/03/09 12:42:22;;;;;;;9.30;4.60;;;;;;;8.94;100.00;96957.92;270979;1269;22651;-82
2023/03/09 12:49:45;;;;;;;9.00;4.10;;;;;;;8.92;100.00;96974.55;271937;1274;22440;-82
2023/03/09 12:55:55;;;;;;;11.10;3.60;;;;;;;8.88;100.00;96985.23;271687;1266;23444;-82
2023/03/09 13:02:21;;;;;;;4.90;2.80;;;;;;;8.86;100.00;97003.18;272298;1274;22273;-82
2023/03/09 13:08:49;;;;;;;6.20;2.60;;;;;;;8.92;100.00;97009.66;272399;1273;22682;-82
2023/03/09 13:14:51;;;;;;;3.80;2.30;;;;;;;9.08;100.00;97020.02;272149;1270;22214;-84
2023/03/09 13:21:20;;;;;;;4.30;2.20;;;;;;;9.20;100.00;97031.16;273500;1260;22246;-83
2023/03/09 13:27:27;;;;;;;6.60;2.90;;;;;;;9.34;100.00;97046.39;264035;1269;10001698;-83
2023/03/09 13:33:31;;;;;;;4.40;1.90;;;;;;;9.43;100.00;97061.55;272731;1259;22833;-81
2023/03/09 13:40:16;;;;;;;5.30;2.20;;;;;;;9.55;100.00;97072.20;273250;1266;23900;-82
2023/03/09 13:46:59;;;;;;;6.40;2.20;;;;;;;9.57;100.00;97090.82;272730;1269;23335;-84
2023/03/09 13:53:16;;;;;;;3.90;2.40;;;;;;;9.56;100.00;97109.80;271663;1269;22238;-82
2023/03/09 13:59:38;;;;;;;4.30;2.40;;;;;;;9.65;100.00;97126.85;273592;1269;23564;-82
2023/03/09 14:05:40;;;;;;;7.50;2.90;;;;;;;9.73;100.00;97130.93;273362;1254;22494;-85
2023/03/09 14:12:22;;;;;;;5.90;3.60;;;;;;;9.75;100.00;97144.80;273489;1258;22166;-82
2023/03/09 14:19:03;;;;;;;5.20;3.40;;;;;;;9.78;100.00;97148.91;273380;1264;22292;-82
2023/03/09 14:25:45;;;;;;;7.20;4.20;;;;;;;9.79;100.00;97158.40;273401;1269;22715;-82
2023/03/09 14:32:19;;;;;;;6.00;3.80;;;;;;;9.78;100.00;97174.05;273561;1256;23301;-82
2023/03/09 14:39:10;;;;;;;7.20;4.80;;;;;;;9.83;100.00;97181.15;269433;1263;22590;-82
2023/03/09 14:45:32;;;;;;;8.60;5.30;;;;;;;9.96;100.00;97180.17;271409;1269;22560;-83
2023/03/09 14:51:36;;;;;;;9.10;5.30;;;;;;;9.96;100.00;97174.24;269465;1266;22690;-82
2023/03/09 14:57:58;;;;;;;9.40;6.20;;;;;;;9.88;100.00;97183.64;270718;1263;25415;-82
2023/03/09 15:03:59;;;;;;;8.90;6.30;;;;;;;9.74;100.00;97191.20;272617;1269;22755;-83
2023/03/09 15:10:01;;;;;;;11.10;7.80;;;;;;;9.65;100.00;97211.30;270504;1269;24080;-83
2023/03/09 15:16:37;;;;;;;13.40;7.90;;;;;;;9.65;100.00;97218.09;273591;1269;22913;-83
2023/03/09 15:22:41;;;;;;;11.60;7.80;;;;;;;9.68;100.00;97227.17;271342;1269;22214;-84
2023/03/09 15:28:43;;;;;;;11.10;7.20;;;;;;;9.56;100.00;97241.70;270952;1269;23399;-84
2023/03/09 15:34:51;;;;;;;11.20;8.30;;;;;;;9.35;99.95;97254.99;270674;1269;23219;-83
2023/03/09 15:41:34;;;;;;;11.10;7.60;;;;;;;9.17;99.90;97267.45;270066;1263;22655;-82
2023/03/09 15:47:38;;;;;;;12.40;8.10;;;;;;;9.00;99.86;97277.30;270461;1265;22801;-83
2023/03/09 15:54:00;;;;;;;13.40;9.50;;;;;;;8.91;99.94;97280.98;272618;1269;22387;-83
2023/03/09 16:00:03;;;;;;;12.40;8.60;;;;;;;8.86;99.77;97284.45;273383;1269;22330;-83
2023/03/09 16:06:07;;;;;;;13.60;8.40;;;;;;;8.81;99.86;97297.52;271128;1269;22549;-83
2023/03/09 16:12:11;;;;;;;12.60;8.60;;;;;;;8.72;99.67;97306.39;270701;1266;22573;-82
2023/03/09 16:18:13;;;;;;;13.70;8.70;;;;;;;8.63;99.37;97321.77;270989;1269;22630;-82
2023/03/09 16:24:35;;;;;;;16.10;10.10;;;;;;;8.51;99.22;97335.63;269723;1269;22552;-83
2023/03/09 16:30:38;;;;;;;21.10;12.60;;;;;;;8.37;99.28;97352.17;272487;1269;22320;-83
2023/03/09 16:36:40;;;;;;;19.40;12.40;;;;;;;8.21;99.17;97364.11;271574;1269;23825;-79
2023/03/09 16:42:42;;;;;;;20.50;13.60;;;;;;;8.07;99.04;97378.72;271420;1269;22534;-83
2023/03/09 16:48:45;;;;;;;21.10;14.10;;;;;;;7.93;99.07;97392.95;272625;1269;22209;-82
2023/03/09 16:55:16;;;;;;;24.50;15.30;;;;;;;7.82;98.87;97399.92;273504;1268;22278;-82
2023/03/09 17:01:56;;;;;;;27.10;16.50;;;;;;;7.78;99.05;97424.69;267079;1296;546133;-82
2023/03/09 17:07:58;;;;;;;25.20;16.20;;;;;;;7.70;98.92;97438.71;269792;1276;23748;-83
2023/03/09 17:14:01;;;;;;;21.80;15.00;;;;;;;7.68;99.01;97452.18;270928;1269;232521;-81
2023/03/09 17:20:19;;;;;;;22.60;15.00;;;;;;;7.63;98.86;97457.95;271014;1271;22409;-83
2023/03/09 17:26:22;;;;;;;25.80;16.30;;;;;;;7.58;98.87;97465.27;269788;1279;22663;-83
2023/03/09 17:32:27;;;;;;;29.80;18.20;;;;;;;7.53;98.90;97471.90;269061;1273;22700;-80
2023/03/09 17:38:51;;;;;;;38.90;19.10;;;;;;;7.49;99.03;97484.27;270244;1279;22491;-81
2023/03/09 17:45:11;;;;;;;25.00;16.90;;;;;;;7.45;98.95;97501.77;269817;1279;22528;-82
2023/03/09 17:51:55;;;;;;;27.20;17.60;;;;;;;7.42;98.97;97517.40;270653;1270;22407;-81
2023/03/09 17:57:57;;;;;;;28.60;17.00;;;;;;;7.39;98.87;97525.57;265552;1262;10002825;-81
2023/03/09 18:04:39;;;;;;;31.60;19.70;;;;;;;7.38;98.86;97521.38;273124;1270;23125;-82
2023/03/09 18:10:45;;;;;;;31.90;20.00;;;;;;;7.33;98.83;97524.95;271676;1270;22611;-82
2023/03/09 18:17:08;;;;;;;37.20;22.70;;;;;;;7.29;99.04;97535.20;271534;1270;22505;-83
2023/03/09 18:23:10;;;;;;;36.80;22.50;;;;;;;7.23;99.07;97540.58;272916;1270;23124;-83
2023/03/09 18:29:12;;;;;;;44.80;27.40;;;;;;;7.19;99.24;97544.45;272806;1271;23712;-83
2023/03/09 18:35:14;;;;;;;41.90;25.20;;;;;;;7.18;99.38;97547.17;270250;1272;23747;-82
2023/03/09 18:41:16;;;;;;;39.60;25.20;;;;;;;7.15;99.43;97537.52;273017;1269;23715;-83
2023/03/09 18:47:19;;;;;;;39.40;23.60;;;;;;;7.10;99.40;97541.65;272884;1263;23153;-83
2023/03/09 18:53:22;;;;;;;35.10;21.60;;;;;;;7.06;99.70;97543.51;271734;1264;22258;-83
2023/03/09 18:59:24;;;;;;;38.60;22.60;;;;;;;6.95;99.45;97553.98;272724;1270;25329;-82
2023/03/09 19:05:26;;;;;;;32.20;19.60;;;;;;;6.85;99.64;97553.02;270558;1270;23048;-83
2023/03/09 19:11:27;;;;;;;32.10;19.50;;;;;;;6.80;99.78;97554.17;270567;1272;22547;-82
2023/03/09 19:17:30;;;;;;;41.40;25.00;;;;;;;6.71;99.51;97550.49;270529;1272;22547;-83
2023/03/09 19:23:31;;;;;;;43.40;24.10;;;;;;;6.57;99.56;97546.02;271548;1272;22402;-82
2023/03/09 19:29:34;;;;;;;36.80;23.10;;;;;;;6.52;99.86;97550.11;270094;1272;22458;-82
2023/03/09 19:35:36;;;;;;;42.60;24.60;;;;;;;6.45;99.91;97548.92;271375;1272;23596;-83
2023/03/09 19:41:40;;;;;;;36.50;23.00;;;;;;;6.40;100.00;97542.84;272850;1273;22475;-83
2023/03/09 19:47:41;;;;;;;40.80;25.70;;;;;;;6.36;100.00;97542.83;272899;1272;22547;-83
2023/03/09 19:53:48;;;;;;;44.50;27.30;;;;;;;6.32;100.00;97539.86;273301;1269;22441;-83
2023/03/09 19:59:50;;;;;;;46.30;30.30;;;;;;;6.27;100.00;97536.96;273286;1269;22467;-82
2023/03/09 20:06:03;;;;;;;49.30;31.90;;;;;;;6.24;100.00;97534.69;273334;1269;23117;-83
2023/03/09 20:12:06;;;;;;;44.10;28.10;;;;;;;6.14;100.00;97531.85;273190;1269;22364;-83
2023/03/09 20:18:08;;;;;;;49.50;29.70;;;;;;;6.01;100.00;97530.70;273379;1269;22197;-83
2023/03/09 20:24:13;;;;;;;47.90;28.80;;;;;;;5.90;100.00;97526.36;273103;1269;23705;-82
2023/03/09 20:30:15;;;;;;;49.90;30.70;;;;;;;5.82;100.00;97531.89;273099;1269;22491;-83
2023/03/09 20:36:17;;;;;;;56.90;33.80;;;;;;;5.75;100.00;97531.35;273261;1269;23288;-83
2023/03/09 20:42:20;;;;;;;55.90;34.10;;;;;;;5.66;100.00;97528.11;272006;1269;23273;-83
2023/03/09 20:48:23;;;;;;;60.50;35.30;;;;;;;5.60;100.00;97527.92;270869;1269;22552;-83
2023/03/09 20:54:26;;;;;;;56.40;33.70;;;;;;;5.53;100.00;97525.23;269808;1269;22594;-83
2023/03/09 21:00:28;;;;;;;53.70;33.10;;;;;;;5.48;100.00;97515.73;270230;1269;22590;-83
2023/03/09 21:06:30;;;;;;;64.80;39.20;;;;;;;5.42;100.00;97505.37;270768;1269;23615;-82
2023/03/09 21:12:33;;;;;;;50.70;31.00;;;;;;;5.24;100.00;97498.48;270862;1269;22568;-83
2023/03/09 21:18:35;;;;;;;57.60;34.70;;;;;;;5.03;100.00;97501.65;270222;1269;22528;-82
2023/03/09 21:24:37;;;;;;;64.30;38.50;;;;;;;4.95;100.00;97499.80;270239;1269;22571;-83
2023/03/09 21:31:20;;;;;;;64.30;38.10;;;;;;;4.91;100.00;97495.88;269827;1270;22512;-83
2023/03/09 21:37:29;;;;;;;64.00;39.20;;;;;;;4.89;100.00;97489.89;269691;1270;23807;-82
2023/03/09 21:43:30;;;;;;;65.10;39.20;;;;;;;4.88;100.00;97482.30;273546;1269;22498;-84
2023/03/09 21:49:32;;;;;;;60.80;37.50;;;;;;;4.88;100.00;97481.28;273491;1270;22161;-83
2023/03/09 21:55:57;;;;;;;62.20;37.00;;;;;;;4.84;100.00;97474.67;273039;1270;22551;-83
2023/03/09 22:02:21;;;;;;;68.20;39.90;;;;;;;4.81;100.00;97470.54;272750;1267;22174;-83
2023/03/09 22:08:23;;;;;;;57.70;34.70;;;;;;;4.87;100.00;97472.91;273146;1269;23361;-83
2023/03/09 22:14:25;;;;;;;65.60;39.10;;;;;;;4.85;100.00;97471.35;270740;1260;22219;-85
2023/03/09 22:20:31;;;;;;;81.80;44.60;;;;;;;4.83;100.00;97462.89;271228;1269;22553;-84
2023/03/09 22:26:54;;;;;;;83.20;44.80;;;;;;;4.84;100.00;97449.95;269827;1257;23794;-83
2023/03/09 22:33:08;;;;;;;74.60;42.20;;;;;;;4.87;100.00;97446.73;272890;1270;22465;-83
2023/03/09 22:39:19;;;;;;;83.60;45.50;;;;;;;4.81;100.00;97440.25;273495;1269;23271;-82
2023/03/09 22:45:42;;;;;;;67.50;40.50;;;;;;;4.78;100.00;97447.04;273613;1269;22227;-83
2023/03/09 22:52:04;;;;;;;66.80;39.00;;;;;;;4.80;100.00;97444.96;273617;1271;22222;-83
2023/03/09 22:58:06;;;;;;;64.00;36.00;;;;;;;4.82;100.00;97443.75;271581;1266;22395;-85
2023/03/09 23:04:28;;;;;;;67.60;38.70;;;;;;;4.82;100.00;97443.42;273816;1266;22916;-83
2023/03/09 23:11:11;;;;;;;71.00;38.60;;;;;;;4.78;100.00;97440.84;273935;1266;23630;-83
2023/03/09 23:17:15;;;;;;;63.90;36.10;;;;;;;4.69;100.00;97435.48;274298;1267;22182;-82
2023/03/09 23:23:24;;;;;;;73.60;42.90;;;;;;;4.59;100.00;97432.68;271754;1266;23040;-82
2023/03/09 23:29:46;;;;;;;69.90;41.80;;;;;;;4.48;100.00;97432.73;271546;1250;22364;-82
2023/03/09 23:36:08;;;;;;;60.10;37.00;;;;;;;4.31;100.00;97434.19;270102;1266;22545;-82
2023/03/09 23:42:30;;;;;;;69.10;41.50;;;;;;;4.25;100.00;97433.89;271080;1266;22192;-82
2023/03/09 23:48:32;;;;;;;72.70;42.80;;;;;;;4.21;100.00;97442.59;274203;1251;22567;-84
2023/03/09 23:54:34;;;;;;;74.20;45.00;;;;;;;4.17;100.00;97444.95;271330;1266;25335;-81
